Time;durP1;ratioP1;P1;durP2;ratioP2;P2;SDS_P1;SDS_P2;PMS_P1;PMS_P2;Temp;Humidity;BMP_temperature;BMP_pressure;BME280_temperature;BME280_humidity;BME280_pressure;Samples;Min_cycle;Max_cycle;Signal;HPM_P1;HPM_P2
2024/02/04 00:01:39;;;;;;;3.83;2.58;;;19.20;74.80;;;;;;5020890;28;20038;-70
2024/02/04 00:04:05;;;;;;;6.80;2.65;;;19.20;75.10;;;;;;5022198;28;20410;-70
2024/02/04 00:06:31;;;;;;;3.88;2.28;;;19.20;75.10;;;;;;5023055;28;20018;-69
2024/02/04 00:08:57;;;;;;;2.80;2.45;;;19.20;75.20;;;;;;5017109;28;20482;-69
2024/02/04 00:11:22;;;;;;;5.22;2.83;;;19.20;75.20;;;;;;5024376;28;20032;-66
2024/02/04 00:13:48;;;;;;;20.48;3.20;;;19.20;75.40;;;;;;5024931;28;20026;-69
2024/02/04 00:16:14;;;;;;;4.93;2.15;;;19.20;75.50;;;;;;5033203;28;20478;-70
2024/02/04 00:18:39;;;;;;;4.45;2.53;;;19.20;75.50;;;;;;5032172;28;20029;-70
2024/02/04 00:21:05;;;;;;;4.15;2.10;;;19.20;75.60;;;;;;5023970;28;20491;-69
2024/02/04 00:23:31;;;;;;;3.55;2.22;;;19.20;75.50;;;;;;5033105;28;20029;-68
2024/02/04 00:25:56;;;;;;;2.45;1.83;;;19.20;75.60;;;;;;5021595;28;20021;-67
2024/02/04 00:28:22;;;;;;;2.90;1.95;;;19.20;75.50;;;;;;5013499;28;20026;-68
2024/02/04 00:30:49;;;;;;;2.83;2.10;;;19.20;75.70;;;;;;5012705;28;20061;-69
2024/02/04 00:33:15;;;;;;;5.82;2.00;;;19.20;75.60;;;;;;5013137;28;20521;-69
2024/02/04 00:35:41;;;;;;;4.25;2.17;;;19.20;75.70;;;;;;5021178;28;20060;-70
2024/02/04 00:38:08;;;;;;;2.97;1.83;;;19.20;75.80;;;;;;5020491;28;20065;-68
2024/02/04 00:40:34;;;;;;;2.22;1.90;;;19.20;75.80;;;;;;5020590;28;20053;-72
2024/02/04 00:43:00;;;;;;;5.03;1.70;;;19.20;75.90;;;;;;5029013;28;20082;-67
2024/02/04 00:45:26;;;;;;;3.40;1.27;;;19.20;75.70;;;;;;5027060;28;20029;-67
2024/02/04 00:47:51;;;;;;;2.78;1.50;;;19.20;75.90;;;;;;5023258;28;20030;-66
2024/02/04 00:50:17;;;;;;;1.77;1.38;;;19.20;76.10;;;;;;5012360;28;20022;-67
2024/02/04 00:52:42;;;;;;;1.23;1.13;;;19.20;76.10;;;;;;5013095;28;20026;-67
2024/02/04 00:55:08;;;;;;;1.33;1.23;;;19.20;76.20;;;;;;5012951;28;20497;-70
2024/02/04 00:57:34;;;;;;;2.15;1.63;;;19.20;76.10;;;;;;5012936;28;20033;-70
2024/02/04 00:59:59;;;;;;;4.00;2.08;;;19.20;76.20;;;;;;5029570;28;20402;-68
2024/02/04 01:02:25;;;;;;;5.22;1.70;;;19.20;76.60;;;;;;5018455;28;20033;-68
2024/02/04 01:04:51;;;;;;;5.25;1.48;;;19.20;76.60;;;;;;5020665;28;20542;-67
2024/02/04 01:07:17;;;;;;;2.33;1.30;;;19.20;76.60;;;;;;5025256;28;20409;-70
2024/02/04 01:09:42;;;;;;;2.65;0.98;;;19.20;76.50;;;;;;5015781;28;20030;-70
2024/02/04 01:12:08;;;;;;;2.58;0.80;;;19.20;76.60;;;;;;5022335;28;20108;-69
2024/02/04 01:14:34;;;;;;;3.47;1.40;;;19.20;76.70;;;;;;5016088;28;20037;-70
2024/02/04 01:17:00;;;;;;;1.35;1.10;;;19.20;76.60;;;;;;5022466;28;20026;-69
2024/02/04 01:19:25;;;;;;;2.67;1.33;;;19.20;76.50;;;;;;5026112;28;20156;-69
2024/02/04 01:21:51;;;;;;;2.22;1.08;;;19.20;76.80;;;;;;5028763;28;20029;-67
2024/02/04 01:24:17;;;;;;;5.32;1.13;;;19.20;76.60;;;;;;5019701;28;20029;-68
2024/02/04 01:26:42;;;;;;;3.58;1.10;;;19.20;76.70;;;;;;5012501;28;20537;-68
2024/02/04 01:29:08;;;;;;;2.33;1.55;;;19.20;76.80;;;;;;5012140;28;20053;-67
2024/02/04 01:31:34;;;;;;;1.30;0.98;;;19.20;76.70;;;;;;5018201;28;20056;-70
2024/02/04 01:34:00;;;;;;;1.85;0.60;;;19.20;76.80;;;;;;5021012;28;20481;-68
2024/02/04 01:36:25;;;;;;;2.17;1.27;;;19.20;76.80;;;;;;5012490;28;20061;-69
2024/02/04 01:38:51;;;;;;;1.65;1.08;;;19.20;76.70;;;;;;5020460;28;20485;-68
2024/02/04 01:41:16;;;;;;;17.88;1.20;;;19.20;76.80;;;;;;5011264;28;20040;-68
2024/02/04 01:43:42;;;;;;;2.25;0.90;;;19.20;76.80;;;;;;5026779;28;20477;-70
2024/02/04 01:46:09;;;;;;;1.58;1.00;;;19.20;76.60;;;;;;5020126;28;20018;-69
2024/02/04 01:48:35;;;;;;;2.33;1.40;;;19.20;76.70;;;;;;5011953;28;20038;-70
2024/02/04 01:51:01;;;;;;;2.92;0.63;;;19.20;76.70;;;;;;5011060;28;20022;-70
2024/02/04 01:53:29;;;;;;;2.63;1.00;;;19.20;76.70;;;;;;5012052;28;20021;-70
2024/02/04 01:55:55;;;;;;;2.58;0.85;;;19.20;76.70;;;;;;5021157;28;20397;-68
2024/02/04 01:58:22;;;;;;;3.40;0.93;;;19.20;76.90;;;;;;5018502;28;20025;-69
2024/02/04 02:00:49;;;;;;;3.25;0.90;;;19.30;77.20;;;;;;5010672;28;20084;-68
2024/02/04 02:03:15;;;;;;;8.38;0.82;;;19.30;76.70;;;;;;5011757;28;20089;-69
2024/02/04 02:05:41;;;;;;;7.18;1.00;;;19.30;76.80;;;;;;5020038;28;20437;-67
2024/02/04 02:08:07;;;;;;;4.03;0.70;;;19.30;76.90;;;;;;5015043;28;20079;-66
2024/02/04 02:10:33;;;;;;;2.40;0.90;;;19.30;77.00;;;;;;5025244;28;20030;-66
2024/02/04 02:13:23;;;;;;;4.97;1.10;;;19.30;77.00;;;;;;5021257;28;20033;-67
2024/02/04 02:15:53;;;;;;;5.07;1.05;;;19.30;76.90;;;;;;5011612;28;20125;-66
2024/02/04 02:18:29;;;;;;;5.57;1.23;;;19.30;77.10;;;;;;5016320;28;20044;-68
2024/02/04 02:21:18;;;;;;;5.55;1.20;;;19.30;77.20;;;;;;5022297;28;20025;-69
2024/02/04 02:24:07;;;;;;;2.83;1.00;;;19.30;77.20;;;;;;5014582;28;20099;-67
2024/02/04 02:26:37;;;;;;;6.43;1.00;;;19.30;77.40;;;;;;5011594;28;20080;-68
2024/02/04 02:29:03;;;;;;;8.73;0.85;;;19.30;77.30;;;;;;5021842;28;20030;-68
2024/02/04 02:31:29;;;;;;;2.30;0.50;;;19.30;77.60;;;;;;5030019;28;20075;-68
2024/02/04 02:33:55;;;;;;;8.15;0.90;;;19.30;77.70;;;;;;5020868;28;20048;-71
2024/02/04 02:36:22;;;;;;;3.75;1.10;;;19.30;77.70;;;;;;5024002;28;20041;-68
2024/02/04 02:39:20;;;;;;;1.58;0.50;;;19.30;77.70;;;;;;5022012;28;20026;-69
2024/02/04 02:41:51;;;;;;;1.45;0.55;;;19.30;77.80;;;;;;5018402;28;20072;-68
2024/02/04 02:44:17;;;;;;;1.15;0.70;;;19.30;77.90;;;;;;5018639;28;20026;-68
2024/02/04 02:46:43;;;;;;;2.63;0.93;;;19.30;78.00;;;;;;5019074;28;20029;-68
2024/02/04 02:49:09;;;;;;;3.25;1.25;;;19.30;78.10;;;;;;5014476;28;20481;-68
2024/02/04 02:51:35;;;;;;;2.80;0.50;;;19.30;78.10;;;;;;5021630;28;20075;-68
2024/02/04 02:54:01;;;;;;;2.22;0.40;;;19.30;78.20;;;;;;5022418;28;20030;-67
2024/02/04 02:56:26;;;;;;;2.45;0.60;;;19.30;78.10;;;;;;5025135;28;20041;-66
2024/02/04 02:58:52;;;;;;;3.50;1.17;;;19.30;78.20;;;;;;5028319;28;20072;-67
2024/02/04 03:01:17;;;;;;;1.55;0.70;;;19.30;78.40;;;;;;5027303;28;20087;-66
2024/02/04 03:03:43;;;;;;;0.77;0.40;;;19.30;78.50;;;;;;5013897;28;20025;-66
2024/02/04 03:06:09;;;;;;;2.38;0.57;;;19.30;78.40;;;;;;5017094;28;20024;-66
2024/02/04 03:08:34;;;;;;;3.53;0.52;;;19.30;78.40;;;;;;5019980;28;20029;-65
2024/02/04 03:11:00;;;;;;;2.40;0.60;;;19.30;78.30;;;;;;5030086;28;20356;-68
2024/02/04 03:13:25;;;;;;;1.52;0.32;;;19.30;78.40;;;;;;5014824;28;20034;-65
2024/02/04 03:15:51;;;;;;;0.82;0.35;;;19.30;78.40;;;;;;5015572;28;20034;-64
2024/02/04 03:18:16;;;;;;;1.65;0.50;;;19.30;78.30;;;;;;5029945;28;20022;-66
2024/02/04 03:20:42;;;;;;;0.90;0.50;;;19.30;78.30;;;;;;5022148;28;20028;-66
2024/02/04 03:23:08;;;;;;;2.40;0.40;;;19.30;78.40;;;;;;5022569;28;20105;-69
2024/02/04 03:25:33;;;;;;;2.13;0.52;;;19.30;78.30;;;;;;5022906;28;20087;-65
2024/02/04 03:27:59;;;;;;;2.05;0.50;;;19.30;78.30;;;;;;5024939;28;20041;-66
2024/02/04 03:30:24;;;;;;;1.17;0.30;;;19.30;78.50;;;;;;5025413;28;20068;-67
2024/02/04 03:32:50;;;;;;;1.92;0.60;;;19.30;78.60;;;;;;5025185;28;20033;-69
2024/02/04 03:35:15;;;;;;;1.05;0.30;;;19.30;78.50;;;;;;5014662;28;20018;-65
2024/02/04 03:37:41;;;;;;;2.35;0.50;;;19.30;78.50;;;;;;5022047;28;20049;-68
2024/02/04 03:40:07;;;;;;;1.00;0.40;;;19.30;78.60;;;;;;5014092;28;20500;-67
2024/02/04 03:42:33;;;;;;;1.75;0.20;;;19.30;78.50;;;;;;5027560;28;20017;-66
2024/02/04 03:44:58;;;;;;;2.60;0.82;;;19.30;78.50;;;;;;5023848;28;20076;-69
2024/02/04 03:47:24;;;;;;;2.10;0.43;;;19.30;78.80;;;;;;5022566;28;20026;-67
2024/02/04 03:49:49;;;;;;;1.67;0.60;;;19.30;78.60;;;;;;5014831;28;20030;-66
2024/02/04 03:52:15;;;;;;;2.75;0.30;;;19.30;78.50;;;;;;5031885;28;20032;-66
2024/02/04 03:54:41;;;;;;;1.27;0.47;;;19.40;78.50;;;;;;5032355;28;20489;-68
2024/02/04 03:57:06;;;;;;;1.13;0.50;;;19.30;78.50;;;;;;5022294;28;20028;-65
2024/02/04 03:59:32;;;;;;;2.78;0.40;;;19.30;78.60;;;;;;5021763;28;20032;-66
2024/02/04 04:01:57;;;;;;;2.47;0.57;;;19.30;78.60;;;;;;5013606;28;20030;-66
2024/02/04 04:04:23;;;;;;;0.70;0.47;;;19.30;78.50;;;;;;5020002;28;20116;-67
2024/02/04 04:06:49;;;;;;;0.98;0.40;;;19.30;78.60;;;;;;5028433;28;20013;-68
2024/02/04 04:09:14;;;;;;;0.70;0.50;;;19.30;78.80;;;;;;5029387;28;20429;-65
2024/02/04 04:11:40;;;;;;;4.70;0.65;;;19.30;78.70;;;;;;5028008;28;20022;-66
2024/02/04 04:14:06;;;;;;;2.03;0.20;;;19.30;78.70;;;;;;5021711;28;20030;-66
2024/02/04 04:16:31;;;;;;;3.40;0.50;;;19.30;78.70;;;;;;5014049;28;20046;-67
2024/02/04 04:18:58;;;;;;;3.58;0.32;;;19.30;78.60;;;;;;5013686;28;20041;-69
2024/02/04 04:21:24;;;;;;;2.15;0.50;;;19.40;78.80;;;;;;5013056;28;20025;-65
2024/02/04 04:23:50;;;;;;;2.40;0.40;;;19.30;78.80;;;;;;5022319;28;20030;-66
2024/02/04 04:26:15;;;;;;;4.78;0.77;;;19.30;79.00;;;;;;5025470;28;20477;-69
2024/02/04 04:28:41;;;;;;;1.55;0.25;;;19.40;78.80;;;;;;5024920;28;20022;-65
2024/02/04 04:31:07;;;;;;;3.42;0.50;;;19.30;78.80;;;;;;5021633;28;20022;-66
2024/02/04 04:33:32;;;;;;;1.80;0.40;;;19.40;78.80;;;;;;5013695;28;20040;-65
2024/02/04 04:35:58;;;;;;;0.77;0.28;;;19.30;78.80;;;;;;5029526;28;20026;-66
2024/02/04 04:38:23;;;;;;;1.33;0.30;;;19.30;78.80;;;;;;5013411;28;20041;-66
2024/02/04 04:40:49;;;;;;;3.90;0.52;;;19.30;78.90;;;;;;5021322;28;20028;-65
2024/02/04 04:43:14;;;;;;;1.98;0.20;;;19.40;78.80;;;;;;5028498;28;20032;-65
2024/02/04 04:45:40;;;;;;;0.32;0.10;;;19.30;78.80;;;;;;5013579;28;20101;-65
2024/02/04 04:48:08;;;;;;;1.60;0.30;;;19.40;78.90;;;;;;5013435;28;20037;-66
2024/02/04 04:50:34;;;;;;;2.58;0.40;;;19.40;79.00;;;;;;5012591;28;20435;-67
2024/02/04 04:52:59;;;;;;;1.13;0.20;;;19.40;79.00;;;;;;5020911;28;20030;-66
2024/02/04 04:55:25;;;;;;;2.05;0.25;;;19.40;78.90;;;;;;5013244;28;20109;-64
2024/02/04 04:57:52;;;;;;;1.83;0.45;;;19.40;78.90;;;;;;5021016;28;20461;-64
2024/02/04 05:00:18;;;;;;;0.30;0.25;;;19.40;78.90;;;;;;5020124;28;20109;-64
2024/02/04 05:02:44;;;;;;;0.15;0.10;;;19.40;78.90;;;;;;5028833;28;20025;-65
2024/02/04 05:05:13;;;;;;;1.17;0.25;;;19.40;78.90;;;;;;5027665;28;20014;-65
2024/02/04 05:07:40;;;;;;;0.98;0.20;;;19.40;78.90;;;;;;5016398;28;20045;-66
2024/02/04 05:10:06;;;;;;;0.20;0.20;;;19.40;78.90;;;;;;5022849;28;20026;-65
2024/02/04 05:12:33;;;;;;;0.55;0.20;;;19.40;78.90;;;;;;5016619;28;20045;-66
2024/02/04 05:14:59;;;;;;;1.17;0.50;;;19.40;79.00;;;;;;5014442;28;20018;-67
2024/02/04 05:17:26;;;;;;;9.52;0.45;;;19.40;79.00;;;;;;5026757;28;20034;-68
2024/02/04 05:19:52;;;;;;;0.20;0.10;;;19.40;78.80;;;;;;5021053;28;20049;-66
2024/02/04 05:22:17;;;;;;;0.22;0.13;;;19.40;78.80;;;;;;5023709;28;20014;-66
2024/02/04 05:24:43;;;;;;;1.25;0.20;;;19.40;78.90;;;;;;5015941;28;20017;-66
2024/02/04 05:27:08;;;;;;;1.58;0.25;;;19.40;79.00;;;;;;5012400;28;20026;-65
2024/02/04 05:29:34;;;;;;;1.08;0.20;;;19.40;78.90;;;;;;5012724;28;20022;-66
2024/02/04 05:32:00;;;;;;;2.38;0.30;;;19.40;78.90;;;;;;5019872;28;20022;-68
2024/02/04 05:34:25;;;;;;;1.95;0.47;;;19.40;78.90;;;;;;5025741;28;20567;-66
2024/02/04 05:36:51;;;;;;;2.15;0.25;;;19.40;79.00;;;;;;5023566;28;20036;-70
2024/02/04 05:39:16;;;;;;;3.28;0.40;;;19.40;79.00;;;;;;5031553;28;20021;-66
2024/02/04 05:41:42;;;;;;;0.55;0.20;;;19.40;79.10;;;;;;5030647;28;20477;-67
2024/02/04 05:44:08;;;;;;;3.47;0.63;;;19.40;79.10;;;;;;5022575;28;20101;-66
2024/02/04 05:46:38;;;;;;;3.60;0.30;;;19.40;79.10;;;;;;5031520;28;20029;-65
2024/02/04 05:49:04;;;;;;;1.10;0.40;;;19.40;79.10;;;;;;5015743;28;20053;-66
2024/02/04 05:51:38;;;;;;;1.75;0.30;;;19.40;79.10;;;;;;5016411;28;20057;-65
2024/02/04 05:54:04;;;;;;;2.25;0.20;;;19.40;79.10;;;;;;5022823;28;20029;-66
2024/02/04 05:56:30;;;;;;;1.75;0.15;;;19.40;79.30;;;;;;5023806;28;20076;-67
2024/02/04 05:58:55;;;;;;;0.30;0.20;;;19.40;79.20;;;;;;5014134;28;20030;-65
2024/02/04 06:01:21;;;;;;;2.72;0.30;;;19.40;79.40;;;;;;5011184;28;20105;-65
2024/02/04 06:03:46;;;;;;;2.03;0.32;;;19.40;79.30;;;;;;5012194;28;20022;-66
2024/02/04 06:06:16;;;;;;;1.85;0.57;;;19.40;79.40;;;;;;5027580;28;20033;-66
2024/02/04 06:08:42;;;;;;;1.33;0.10;;;19.40;79.40;;;;;;5022894;28;20029;-65
2024/02/04 06:11:12;;;;;;;0.30;0.30;;;19.40;79.50;;;;;;5019714;28;20052;-67
2024/02/04 06:13:42;;;;;;;1.95;0.10;;;19.40;79.40;;;;;;5011981;28;20025;-68
2024/02/04 06:16:08;;;;;;;0.82;0.20;;;19.40;79.60;;;;;;5014905;28;20100;-66
2024/02/04 06:18:37;;;;;;;0.75;0.20;;;19.40;79.50;;;;;;5016953;28;20608;-65
2024/02/04 06:21:03;;;;;;;0.17;0.10;;;19.40;79.40;;;;;;5018474;28;20394;-66
2024/02/04 06:23:29;;;;;;;1.45;0.13;;;19.40;79.50;;;;;;5020180;28;20037;-65
2024/02/04 06:25:54;;;;;;;1.08;0.60;;;19.40;79.50;;;;;;5020640;28;20034;-66
2024/02/04 06:28:20;;;;;;;0.65;0.08;;;19.40;79.40;;;;;;5023264;28;20120;-69
2024/02/04 06:30:46;;;;;;;3.10;0.15;;;19.40;79.50;;;;;;5014333;28;20054;-67
2024/02/04 06:33:11;;;;;;;2.10;0.10;;;19.40;79.50;;;;;;5027444;28;20528;-67
2024/02/04 06:35:37;;;;;;;0.32;0.00;;;19.40;79.50;;;;;;5010834;28;20064;-67
2024/02/04 06:38:03;;;;;;;0.32;0.20;;;19.40;79.50;;;;;;5011529;28;20126;-67
2024/02/04 06:40:28;;;;;;;0.35;0.10;;;19.40;79.50;;;;;;5010900;28;20018;-66
2024/02/04 06:42:54;;;;;;;1.48;0.20;;;19.40;79.50;;;;;;5018465;28;20045;-68
2024/02/04 06:45:19;;;;;;;0.80;0.10;;;19.40;79.50;;;;;;5015938;28;20021;-67
2024/02/04 06:47:45;;;;;;;0.55;0.10;;;19.40;79.50;;;;;;5014546;28;20100;-67
2024/02/04 06:50:14;;;;;;;0.45;0.00;;;19.40;79.50;;;;;;5021461;28;20477;-69
2024/02/04 06:52:41;;;;;;;2.92;0.13;;;19.40;79.70;;;;;;5023312;28;20022;-69
2024/02/04 06:55:07;;;;;;;0.20;0.17;;;19.40;79.60;;;;;;5021770;28;20048;-68
2024/02/04 06:57:32;;;;;;;0.75;0.40;;;19.40;79.60;;;;;;5024131;28;20018;-66
2024/02/04 06:59:58;;;;;;;0.22;0.03;;;19.40;79.60;;;;;;5019123;28;20034;-67
2024/02/04 07:02:23;;;;;;;1.65;0.25;;;19.40;79.60;;;;;;5015890;28;20025;-69
2024/02/04 07:04:49;;;;;;;0.00;0.00;;;19.40;79.60;;;;;;5022367;28;20025;-68
2024/02/04 07:07:14;;;;;;;2.22;0.00;;;19.40;79.50;;;;;;5023152;28;20087;-67
2024/02/04 07:09:40;;;;;;;0.00;0.00;;;19.40;79.60;;;;;;5023123;28;20040;-66
2024/02/04 07:12:06;;;;;;;0.05;0.00;;;19.40;79.60;;;;;;5029378;28;20033;-66
2024/02/04 07:14:31;;;;;;;1.55;0.17;;;19.40;79.60;;;;;;5024211;28;20032;-67
2024/02/04 07:16:57;;;;;;;0.63;0.10;;;19.40;79.60;;;;;;5019231;28;20033;-65
2024/02/04 07:19:23;;;;;;;2.22;0.30;;;19.40;79.80;;;;;;5024850;28;20537;-66
2024/02/04 07:21:48;;;;;;;4.72;0.28;;;19.40;79.70;;;;;;5026566;28;20029;-65
2024/02/04 07:24:14;;;;;;;0.98;0.20;;;19.40;79.70;;;;;;5018781;28;20172;-67
2024/02/04 07:26:40;;;;;;;3.25;0.40;;;19.40;79.80;;;;;;5018486;28;20037;-69
2024/02/04 07:29:05;;;;;;;6.85;0.25;;;19.40;79.70;;;;;;5014296;28;20030;-67
2024/02/04 07:31:31;;;;;;;12.60;0.98;;;19.50;79.90;;;;;;5023300;28;20034;-68
2024/02/04 07:33:56;;;;;;;9.73;1.48;;;19.50;79.60;;;;;;5011133;28;20030;-67
2024/02/04 07:36:22;;;;;;;24.55;1.83;;;19.50;79.60;;;;;;5010831;28;20033;-69
2024/02/04 07:38:48;;;;;;;7.25;0.95;;;19.50;79.40;;;;;;5011092;28;20034;-67
2024/02/04 07:41:15;;;;;;;11.93;1.55;;;19.50;79.10;;;;;;5017490;28;20505;-66
2024/02/04 07:43:41;;;;;;;16.10;1.40;;;19.50;78.90;;;;;;5017867;28;20033;-66
2024/02/04 07:46:08;;;;;;;19.58;3.10;;;19.50;78.70;;;;;;5011279;28;20092;-68
2024/02/04 07:48:34;;;;;;;21.73;2.08;;;19.50;79.90;;;;;;5014437;28;20030;-66
2024/02/04 07:50:59;;;;;;;12.35;1.90;;;19.50;80.00;;;;;;5024089;28;20116;-67
2024/02/04 07:53:25;;;;;;;11.00;1.90;;;19.50;79.60;;;;;;5014455;28;20477;-66
2024/02/04 07:55:51;;;;;;;15.10;1.85;;;19.50;79.10;;;;;;5014544;28;20030;-69
2024/02/04 07:58:16;;;;;;;1.25;0.50;;;19.50;78.10;;;;;;5014322;28;20029;-71
2024/02/04 08:00:42;;;;;;;1.05;0.55;;;18.80;63.40;;;;;;5013212;28;20038;-66
2024/02/04 08:03:07;;;;;;;1.98;0.47;;;18.00;61.60;;;;;;5014012;28;20025;-69
2024/02/04 08:05:35;;;;;;;0.73;0.30;;;17.10;61.60;;;;;;5020438;28;20026;-69
2024/02/04 08:08:01;;;;;;;1.85;0.30;;;16.20;63.40;;;;;;5028625;28;20104;-71
2024/02/04 08:10:26;;;;;;;3.55;0.32;;;15.70;65.40;;;;;;5019439;28;20132;-72
2024/02/04 08:12:53;;;;;;;20.15;1.20;;;15.50;66.30;;;;;;5013853;28;20070;-69
2024/02/04 08:15:19;;;;;;;5.57;0.70;;;15.80;70.30;;;;;;5014139;28;20057;-71
2024/02/04 08:17:45;;;;;;;2.95;0.45;;;16.20;72.40;;;;;;5022220;28;20022;-68
2024/02/04 08:20:12;;;;;;;3.35;0.60;;;16.50;73.50;;;;;;5011768;28;20018;-71
2024/02/04 08:22:38;;;;;;;5.05;0.40;;;16.90;74.10;;;;;;5014141;28;20508;-69
2024/02/04 08:25:05;;;;;;;1.27;0.38;;;17.20;74.20;;;;;;5016029;28;20026;-70
2024/02/04 08:27:31;;;;;;;2.78;1.00;;;17.40;74.40;;;;;;5017493;28;20053;-67
2024/02/04 08:29:57;;;;;;;5.40;0.90;;;17.70;74.30;;;;;;5013724;28;20025;-67
2024/02/04 08:32:22;;;;;;;8.25;1.17;;;17.90;73.90;;;;;;5020485;28;20033;-68
2024/02/04 08:34:48;;;;;;;13.05;0.73;;;18.00;74.00;;;;;;5013403;28;20030;-67
2024/02/04 08:37:14;;;;;;;20.17;1.20;;;18.20;73.80;;;;;;5012330;28;20034;-68
2024/02/04 08:39:39;;;;;;;5.13;1.48;;;18.30;73.60;;;;;;5013184;28;20044;-66
2024/02/04 08:42:05;;;;;;;6.07;0.75;;;18.50;73.40;;;;;;5015659;28;20910;-65
2024/02/04 08:44:31;;;;;;;3.35;0.55;;;18.50;73.20;;;;;;5025614;28;20034;-68
2024/02/04 08:46:57;;;;;;;4.93;1.05;;;18.60;73.10;;;;;;5014554;28;20018;-68
2024/02/04 08:49:22;;;;;;;5.97;0.52;;;18.70;73.00;;;;;;5019484;28;20452;-69
2024/02/04 08:51:48;;;;;;;7.22;0.80;;;18.70;72.90;;;;;;5013633;28;20048;-68
2024/02/04 08:54:14;;;;;;;4.35;0.85;;;18.80;72.80;;;;;;5020878;28;20037;-70
2024/02/04 08:56:40;;;;;;;3.78;0.60;;;18.90;72.80;;;;;;5013175;28;20026;-69
2024/02/04 08:59:06;;;;;;;3.22;0.70;;;18.90;72.70;;;;;;5014777;28;20481;-67
2024/02/04 09:01:31;;;;;;;6.03;0.68;;;18.90;72.70;;;;;;5025167;28;20034;-67
2024/02/04 09:03:57;;;;;;;1.27;0.20;;;18.90;72.60;;;;;;5022847;28;20069;-68
2024/02/04 09:06:23;;;;;;;1.98;0.35;;;19.00;72.60;;;;;;5027639;28;20099;-69
2024/02/04 09:08:48;;;;;;;2.90;0.50;;;19.00;72.60;;;;;;5023609;28;20026;-67
2024/02/04 09:11:18;;;;;;;1.70;0.32;;;19.00;72.50;;;;;;5019019;28;20029;-67
2024/02/04 09:13:45;;;;;;;8.85;0.98;;;19.00;72.60;;;;;;5021206;28;20030;-66
2024/02/04 09:16:10;;;;;;;3.53;0.75;;;19.00;72.70;;;;;;5021030;28;20030;-67
2024/02/04 09:18:37;;;;;;;9.80;1.75;;;19.00;73.00;;;;;;5012701;28;20022;-65
2024/02/04 09:21:02;;;;;;;8.32;1.80;;;19.10;73.20;;;;;;5019460;28;20030;-64
2024/02/04 09:23:28;;;;;;;5.53;0.82;;;19.20;73.20;;;;;;5012840;28;20474;-65
2024/02/04 09:25:53;;;;;;;9.68;0.95;;;19.10;73.20;;;;;;5020416;28;20499;-65
2024/02/04 09:28:19;;;;;;;9.27;1.17;;;19.20;73.20;;;;;;5017004;28;20113;-66
2024/02/04 09:30:46;;;;;;;9.23;0.68;;;19.20;73.10;;;;;;5015135;28;20088;-66
2024/02/04 09:33:13;;;;;;;14.48;0.90;;;19.20;73.00;;;;;;5012439;28;20033;-66
2024/02/04 09:35:39;;;;;;;1.85;0.38;;;19.20;73.00;;;;;;5012380;28;20028;-66
2024/02/04 09:38:04;;;;;;;3.72;0.60;;;19.20;72.90;;;;;;5012397;28;20590;-65
2024/02/04 09:40:30;;;;;;;3.13;0.70;;;19.20;72.90;;;;;;5011643;28;20484;-67
2024/02/04 09:42:58;;;;;;;3.85;0.63;;;19.20;72.80;;;;;;5019348;28;20040;-66
2024/02/04 09:45:23;;;;;;;3.60;0.50;;;19.20;72.80;;;;;;5017236;28;20025;-67
2024/02/04 09:47:52;;;;;;;2.05;0.43;;;19.20;72.80;;;;;;5014919;28;20065;-65
2024/02/04 09:50:19;;;;;;;3.05;0.98;;;19.20;72.70;;;;;;5011617;28;20022;-67
2024/02/04 09:52:49;;;;;;;3.53;0.30;;;19.20;72.70;;;;;;5012123;28;20389;-66
2024/02/04 09:55:16;;;;;;;7.60;0.63;;;19.20;72.70;;;;;;5014720;28;20052;-67
2024/02/04 09:57:42;;;;;;;16.90;0.65;;;19.20;72.60;;;;;;5022972;28;20020;-67
2024/02/04 10:00:10;;;;;;;5.20;0.50;;;19.20;72.60;;;;;;5011625;28;20030;-64
2024/02/04 10:02:36;;;;;;;3.88;0.65;;;19.20;72.60;;;;;;5012236;28;20018;-66
2024/02/04 10:05:03;;;;;;;2.35;0.40;;;19.20;72.60;;;;;;5012088;28;20532;-65
2024/02/04 10:07:29;;;;;;;1.02;0.20;;;19.20;72.60;;;;;;5025511;28;20063;-65
2024/02/04 10:09:55;;;;;;;1.38;0.25;;;19.20;72.60;;;;;;5014249;28;20125;-66
2024/02/04 10:12:21;;;;;;;0.55;0.32;;;19.20;72.60;;;;;;5018865;28;20525;-65
2024/02/04 10:14:49;;;;;;;1.02;0.10;;;19.20;72.70;;;;;;5018849;28;20408;-68
2024/02/04 10:17:16;;;;;;;0.35;0.20;;;19.20;72.60;;;;;;5033765;28;20029;-66
2024/02/04 10:19:41;;;;;;;2.67;0.40;;;19.20;72.70;;;;;;5018122;28;20028;-66
2024/02/04 10:22:07;;;;;;;0.35;0.15;;;19.20;72.60;;;;;;5010200;28;20390;-66
2024/02/04 10:24:35;;;;;;;2.10;0.15;;;19.20;72.60;;;;;;5019440;28;20100;-67
2024/02/04 10:27:01;;;;;;;0.77;0.30;;;19.20;72.60;;;;;;5029267;28;20028;-67
2024/02/04 10:29:27;;;;;;;1.45;0.20;;;19.20;72.60;;;;;;5017126;28;20859;-64
2024/02/04 10:31:57;;;;;;;0.47;0.32;;;19.20;72.60;;;;;;5011561;28;20025;-67
2024/02/04 10:34:23;;;;;;;1.98;0.22;;;19.20;72.60;;;;;;5011892;28;20022;-66
2024/02/04 10:36:49;;;;;;;2.38;0.20;;;19.10;72.60;;;;;;5011861;28;20076;-66
2024/02/04 10:39:15;;;;;;;1.48;0.25;;;19.10;72.60;;;;;;5011709;28;20030;-66
2024/02/04 10:41:49;;;;;;;0.50;0.30;;;19.20;72.70;;;;;;5010858;28;20049;-66
2024/02/04 10:44:17;;;;;;;2.15;0.30;;;19.10;72.70;;;;;;5019062;28;20448;-67
2024/02/04 10:46:46;;;;;;;3.83;0.20;;;19.20;72.60;;;;;;5011541;28;20029;-67
2024/02/04 10:49:14;;;;;;;1.13;0.20;;;19.10;72.70;;;;;;5019632;28;20076;-66
2024/02/04 10:51:41;;;;;;;0.75;0.30;;;19.20;72.70;;;;;;5010867;28;20045;-68
2024/02/04 10:54:08;;;;;;;1.75;0.52;;;19.20;72.70;;;;;;5019342;28;20075;-67
2024/02/04 10:56:41;;;;;;;2.10;0.25;;;19.10;72.70;;;;;;5018197;28;20396;-67
2024/02/04 10:59:09;;;;;;;1.30;0.35;;;19.10;72.70;;;;;;5027692;28;20042;-67
2024/02/04 11:01:36;;;;;;;1.58;0.20;;;19.10;72.70;;;;;;5017075;28;20124;-67
2024/02/04 11:04:03;;;;;;;0.90;0.10;;;19.10;72.70;;;;;;5020747;28;20030;-66
2024/02/04 11:06:30;;;;;;;0.50;0.20;;;19.20;72.70;;;;;;5012499;28;20536;-66
2024/02/04 11:08:58;;;;;;;1.40;0.10;;;19.10;72.70;;;;;;5022277;28;20457;-67
2024/02/04 11:11:26;;;;;;;1.27;0.20;;;19.10;72.70;;;;;;5021465;28;20025;-67
2024/02/04 11:13:56;;;;;;;0.35;0.10;;;19.10;72.70;;;;;;5014240;28;20026;-67
2024/02/04 11:16:40;;;;;;;3.10;0.38;;;19.10;72.70;;;;;;5022768;28;20098;-66
2024/02/04 11:19:15;;;;;;;0.20;0.10;;;19.10;72.70;;;;;;5010801;28;20041;-67
2024/02/04 11:21:43;;;;;;;0.80;0.20;;;19.10;72.70;;;;;;5011546;28;20026;-67
2024/02/04 11:24:40;;;;;;;1.05;0.20;;;19.10;72.70;;;;;;5014673;28;20533;-67
2024/02/04 11:27:06;;;;;;;0.45;0.13;;;19.10;72.60;;;;;;5014807;28;20101;-64
2024/02/04 11:29:32;;;;;;;1.00;0.10;;;19.10;72.60;;;;;;5020610;28;20124;-68
2024/02/04 11:31:58;;;;;;;1.98;0.20;;;19.10;72.60;;;;;;5015828;28;20029;-67
2024/02/04 11:34:24;;;;;;;0.32;0.25;;;19.10;72.60;;;;;;5018454;28;20036;-66
2024/02/04 11:36:49;;;;;;;0.65;0.10;;;19.10;72.60;;;;;;5016931;28;20109;-66
2024/02/04 11:39:21;;;;;;;0.88;0.20;;;19.10;72.50;;;;;;5025135;28;20071;-67
2024/02/04 11:41:49;;;;;;;0.55;0.15;;;19.10;72.60;;;;;;5016994;28;20109;-67
2024/02/04 11:44:22;;;;;;;3.00;0.20;;;19.10;72.60;;;;;;5030092;28;20103;-66
2024/02/04 11:46:48;;;;;;;0.30;0.10;;;19.10;72.60;;;;;;5022571;28;20101;-67
2024/02/04 11:49:19;;;;;;;0.73;0.10;;;19.10;72.60;;;;;;5022814;28;20032;-66
2024/02/04 11:51:48;;;;;;;1.00;0.10;;;19.10;72.50;;;;;;5034864;28;20465;-65
2024/02/04 11:54:21;;;;;;;2.10;0.20;;;19.10;72.60;;;;;;5028472;28;20068;-66
2024/02/04 11:56:54;;;;;;;0.88;0.17;;;19.10;72.50;;;;;;5033854;28;20100;-67
2024/02/04 11:59:24;;;;;;;4.00;0.28;;;19.10;72.60;;;;;;5022313;28;20025;-67
2024/02/04 12:01:57;;;;;;;0.80;0.15;;;19.10;72.60;;;;;;5024462;28;20439;-65
2024/02/04 12:04:23;;;;;;;1.83;0.32;;;19.10;72.60;;;;;;5033159;28;20018;-66
2024/02/04 12:06:51;;;;;;;4.82;0.25;;;19.10;72.60;;;;;;5031972;28;20537;-66
2024/02/04 12:09:18;;;;;;;3.15;0.28;;;19.10;72.60;;;;;;5023899;28;20032;-66
2024/02/04 12:11:44;;;;;;;0.93;0.35;;;19.10;72.70;;;;;;5023018;28;20026;-65
2024/02/04 12:14:10;;;;;;;1.30;0.22;;;19.10;72.70;;;;;;5022120;28;20047;-66
2024/02/04 12:16:36;;;;;;;1.65;0.40;;;19.10;72.70;;;;;;5028220;28;20477;-66
2024/02/04 12:19:05;;;;;;;0.93;0.57;;;19.00;72.70;;;;;;5022516;28;20033;-67
2024/02/04 12:21:32;;;;;;;3.03;0.32;;;19.10;72.70;;;;;;5029643;28;20063;-67
2024/02/04 12:23:59;;;;;;;0.40;0.15;;;19.10;72.70;;;;;;5027618;28;20033;-65
2024/02/04 12:26:25;;;;;;;0.30;0.10;;;19.10;72.80;;;;;;5027423;28;20021;-65
2024/02/04 12:28:51;;;;;;;0.82;0.25;;;19.10;72.70;;;;;;5027807;28;20061;-66
2024/02/04 12:31:18;;;;;;;1.48;0.20;;;19.00;72.70;;;;;;5017976;28;20156;-66
2024/02/04 12:33:53;;;;;;;0.40;0.30;;;19.10;72.80;;;;;;5024427;28;20017;-65
2024/02/04 12:36:19;;;;;;;0.85;0.25;;;19.10;72.70;;;;;;5034629;28;20100;-67
2024/02/04 12:38:51;;;;;;;1.98;0.15;;;19.00;72.80;;;;;;5031900;28;20082;-64
2024/02/04 12:41:17;;;;;;;2.20;0.20;;;19.00;72.70;;;;;;5030537;28;20024;-66
2024/02/04 12:43:50;;;;;;;4.13;0.45;;;19.10;72.90;;;;;;5032549;28;20124;-65